sensor_id;sensor_type;location;lat;lon;timestamp;P1;durP1;ratioP1;P2;durP2;ratioP2
6860;SDS011;3469;47.060;15.460;2022-08-01T00:00:08;3.90;;;3.50;;
6860;SDS011;3469;47.060;15.460;2022-08-01T00:02:37;3.83;;;3.53;;
6860;SDS011;3469;47.060;15.460;2022-08-01T00:05:07;4.07;;;3.77;;
6860;SDS011;3469;47.060;15.460;2022-08-01T00:07:37;5.00;;;4.60;;
6860;SDS011;3469;47.060;15.460;2022-08-01T00:10:06;4.63;;;3.70;;
6860;SDS011;3469;47.060;15.460;2022-08-01T00:12:37;5.67;;;4.20;;
6860;SDS011;3469;47.060;15.460;2022-08-01T00:15:06;5.23;;;4.63;;
6860;SDS011;3469;47.060;15.460;2022-08-01T00:17:37;3.73;;;3.43;;
6860;SDS011;3469;47.060;15.460;2022-08-01T00:20:06;4.77;;;4.27;;
6860;SDS011;3469;47.060;15.460;2022-08-01T00:22:35;4.30;;;3.90;;
6860;SDS011;3469;47.060;15.460;2022-08-01T00:25:07;5.10;;;4.60;;
6860;SDS011;3469;47.060;15.460;2022-08-01T00:27:37;4.57;;;4.17;;
6860;SDS011;3469;47.060;15.460;2022-08-01T00:30:06;4.87;;;4.47;;
6860;SDS011;3469;47.060;15.460;2022-08-01T00:32:40;5.37;;;4.07;;
6860;SDS011;3469;47.060;15.460;2022-08-01T00:35:09;3.90;;;3.60;;
6860;SDS011;3469;47.060;15.460;2022-08-01T00:37:38;4.23;;;3.93;;
6860;SDS011;3469;47.060;15.460;2022-08-01T00:40:06;4.30;;;4.00;;
6860;SDS011;3469;47.060;15.460;2022-08-01T00:42:37;5.70;;;3.60;;
6860;SDS011;3469;47.060;15.460;2022-08-01T00:45:09;4.67;;;4.27;;
6860;SDS011;3469;47.060;15.460;2022-08-01T00:47:38;4.07;;;3.77;;
6860;SDS011;3469;47.060;15.460;2022-08-01T00:50:07;5.73;;;4.07;;
6860;SDS011;3469;47.060;15.460;2022-08-01T00:52:36;4.30;;;4.00;;
6860;SDS011;3469;47.060;15.460;2022-08-01T00:55:05;4.27;;;3.87;;
6860;SDS011;3469;47.060;15.460;2022-08-01T00:57:40;5.40;;;4.47;;
6860;SDS011;3469;47.060;15.460;2022-08-01T01:00:28;4.30;;;4.00;;
6860;SDS011;3469;47.060;15.460;2022-08-01T01:03:17;4.70;;;4.30;;
6860;SDS011;3469;47.060;15.460;2022-08-01T01:05:47;5.73;;;3.90;;
6860;SDS011;3469;47.060;15.460;2022-08-01T01:08:19;5.07;;;4.67;;
6860;SDS011;3469;47.060;15.460;2022-08-01T01:10:52;4.40;;;4.03;;
6860;SDS011;3469;47.060;15.460;2022-08-01T01:13:25;5.27;;;4.10;;
6860;SDS011;3469;47.060;15.460;2022-08-01T01:16:02;4.70;;;4.33;;
6860;SDS011;3469;47.060;15.460;2022-08-01T01:18:34;5.60;;;4.50;;
6860;SDS011;3469;47.060;15.460;2022-08-01T01:21:07;4.60;;;4.20;;
6860;SDS011;3469;47.060;15.460;2022-08-01T01:23:54;4.00;;;3.60;;
6860;SDS011;3469;47.060;15.460;2022-08-01T01:26:31;4.37;;;4.07;;
6860;SDS011;3469;47.060;15.460;2022-08-01T01:29:08;5.20;;;4.70;;
6860;SDS011;3469;47.060;15.460;2022-08-01T01:31:40;5.17;;;4.13;;
6860;SDS011;3469;47.060;15.460;2022-08-01T01:34:11;5.80;;;4.80;;
6860;SDS011;3469;47.060;15.460;2022-08-01T01:36:41;5.20;;;4.80;;
6860;SDS011;3469;47.060;15.460;2022-08-01T01:39:11;5.00;;;4.50;;
6860;SDS011;3469;47.060;15.460;2022-08-01T01:41:42;4.63;;;4.20;;
6860;SDS011;3469;47.060;15.460;2022-08-01T01:44:12;4.77;;;4.30;;
6860;SDS011;3469;47.060;15.460;2022-08-01T01:46:41;4.97;;;4.57;;
6860;SDS011;3469;47.060;15.460;2022-08-01T01:49:09;7.37;;;5.03;;
6860;SDS011;3469;47.060;15.460;2022-08-01T01:51:38;5.10;;;4.70;;
6860;SDS011;3469;47.060;15.460;2022-08-01T01:54:23;4.80;;;4.40;;
6860;SDS011;3469;47.060;15.460;2022-08-01T01:56:52;5.20;;;4.70;;
6860;SDS011;3469;47.060;15.460;2022-08-01T01:59:25;4.30;;;3.90;;
6860;SDS011;3469;47.060;15.460;2022-08-01T02:01:56;4.20;;;3.90;;
6860;SDS011;3469;47.060;15.460;2022-08-01T02:04:35;4.97;;;4.53;;
6860;SDS011;3469;47.060;15.460;2022-08-01T02:07:04;5.00;;;4.50;;
6860;SDS011;3469;47.060;15.460;2022-08-01T02:09:33;4.63;;;4.13;;
6860;SDS011;3469;47.060;15.460;2022-08-01T02:12:02;4.90;;;4.50;;
6860;SDS011;3469;47.060;15.460;2022-08-01T02:14:37;5.00;;;4.37;;
6860;SDS011;3469;47.060;15.460;2022-08-01T02:17:06;4.77;;;4.27;;
6860;SDS011;3469;47.060;15.460;2022-08-01T02:19:36;4.57;;;4.27;;
6860;SDS011;3469;47.060;15.460;2022-08-01T02:22:06;4.37;;;3.97;;
6860;SDS011;3469;47.060;15.460;2022-08-01T02:24:37;4.90;;;4.40;;
6860;SDS011;3469;47.060;15.460;2022-08-01T02:27:09;8.53;;;4.97;;
6860;SDS011;3469;47.060;15.460;2022-08-01T02:29:42;4.90;;;4.50;;
6860;SDS011;3469;47.060;15.460;2022-08-01T02:32:14;4.27;;;3.90;;
6860;SDS011;3469;47.060;15.460;2022-08-01T02:34:49;4.90;;;4.50;;
6860;SDS011;3469;47.060;15.460;2022-08-01T02:37:19;4.60;;;4.20;;
6860;SDS011;3469;47.060;15.460;2022-08-01T02:39:49;4.37;;;4.07;;
6860;SDS011;3469;47.060;15.460;2022-08-01T02:42:18;4.60;;;4.20;;
6860;SDS011;3469;47.060;15.460;2022-08-01T02:44:49;4.40;;;4.00;;
6860;SDS011;3469;47.060;15.460;2022-08-01T02:47:18;5.10;;;4.63;;
6860;SDS011;3469;47.060;15.460;2022-08-01T02:49:47;4.33;;;4.03;;
6860;SDS011;3469;47.060;15.460;2022-08-01T02:52:20;4.33;;;3.93;;
6860;SDS011;3469;47.060;15.460;2022-08-01T02:54:50;4.30;;;4.00;;
6860;SDS011;3469;47.060;15.460;2022-08-01T02:57:20;4.23;;;3.83;;
6860;SDS011;3469;47.060;15.460;2022-08-01T02:59:55;5.03;;;4.60;;
6860;SDS011;3469;47.060;15.460;2022-08-01T03:02:25;4.37;;;3.97;;
6860;SDS011;3469;47.060;15.460;2022-08-01T03:04:54;4.37;;;3.97;;
6860;SDS011;3469;47.060;15.460;2022-08-01T03:07:23;4.80;;;4.30;;
6860;SDS011;3469;47.060;15.460;2022-08-01T03:10:00;4.67;;;4.37;;
6860;SDS011;3469;47.060;15.460;2022-08-01T03:12:30;4.50;;;4.10;;
6860;SDS011;3469;47.060;15.460;2022-08-01T03:15:03;5.03;;;4.63;;
6860;SDS011;3469;47.060;15.460;2022-08-01T03:17:35;4.67;;;4.27;;
6860;SDS011;3469;47.060;15.460;2022-08-01T03:20:06;8.30;;;4.90;;
6860;SDS011;3469;47.060;15.460;2022-08-01T03:22:36;5.20;;;4.80;;
6860;SDS011;3469;47.060;15.460;2022-08-01T03:25:05;5.40;;;4.90;;
6860;SDS011;3469;47.060;15.460;2022-08-01T03:27:34;6.23;;;4.70;;
6860;SDS011;3469;47.060;15.460;2022-08-01T03:30:06;4.50;;;4.10;;
6860;SDS011;3469;47.060;15.460;2022-08-01T03:32:35;5.20;;;4.80;;
6860;SDS011;3469;47.060;15.460;2022-08-01T03:35:04;5.80;;;4.50;;
6860;SDS011;3469;47.060;15.460;2022-08-01T03:37:34;4.87;;;4.47;;
6860;SDS011;3469;47.060;15.460;2022-08-01T03:40:25;4.20;;;3.90;;
6860;SDS011;3469;47.060;15.460;2022-08-01T03:42:59;5.40;;;4.20;;
6860;SDS011;3469;47.060;15.460;2022-08-01T03:45:39;5.20;;;4.80;;
6860;SDS011;3469;47.060;15.460;2022-08-01T03:48:10;4.17;;;3.87;;
6860;SDS011;3469;47.060;15.460;2022-08-01T03:50:41;6.10;;;4.10;;
6860;SDS011;3469;47.060;15.460;2022-08-01T03:53:11;4.83;;;4.43;;
6860;SDS011;3469;47.060;15.460;2022-08-01T03:55:41;5.03;;;4.63;;
6860;SDS011;3469;47.060;15.460;2022-08-01T03:58:10;4.57;;;4.10;;
6860;SDS011;3469;47.060;15.460;2022-08-01T04:00:40;4.37;;;4.07;;
6860;SDS011;3469;47.060;15.460;2022-08-01T04:03:09;4.07;;;3.77;;
6860;SDS011;3469;47.060;15.460;2022-08-01T04:05:39;5.43;;;4.53;;
6860;SDS011;3469;47.060;15.460;2022-08-01T04:08:08;5.50;;;4.10;;
6860;SDS011;3469;47.060;15.460;2022-08-01T04:10:37;4.50;;;4.10;;
6860;SDS011;3469;47.060;15.460;2022-08-01T04:13:05;4.50;;;4.00;;
6860;SDS011;3469;47.060;15.460;2022-08-01T04:15:33;4.60;;;4.20;;
6860;SDS011;3469;47.060;15.460;2022-08-01T04:18:03;4.77;;;4.30;;
6860;SDS011;3469;47.060;15.460;2022-08-01T04:20:33;6.40;;;4.83;;
6860;SDS011;3469;47.060;15.460;2022-08-01T04:23:02;7.33;;;4.47;;
6860;SDS011;3469;47.060;15.460;2022-08-01T04:25:32;4.50;;;4.10;;
6860;SDS011;3469;47.060;15.460;2022-08-01T04:28:01;6.70;;;4.20;;
6860;SDS011;3469;47.060;15.460;2022-08-01T04:30:32;4.73;;;4.30;;
6860;SDS011;3469;47.060;15.460;2022-08-01T04:33:04;9.47;;;4.07;;
6860;SDS011;3469;47.060;15.460;2022-08-01T04:35:34;5.30;;;4.67;;
6860;SDS011;3469;47.060;15.460;2022-08-01T04:38:25;5.47;;;5.07;;
6860;SDS011;3469;47.060;15.460;2022-08-01T04:40:54;4.67;;;4.30;;
6860;SDS011;3469;47.060;15.460;2022-08-01T04:43:29;4.70;;;4.30;;
6860;SDS011;3469;47.060;15.460;2022-08-01T04:45:58;4.70;;;4.30;;
6860;SDS011;3469;47.060;15.460;2022-08-01T04:48:29;5.50;;;5.00;;
6860;SDS011;3469;47.060;15.460;2022-08-01T04:50:59;5.97;;;4.73;;
6860;SDS011;3469;47.060;15.460;2022-08-01T04:53:28;5.47;;;4.93;;
6860;SDS011;3469;47.060;15.460;2022-08-01T04:55:59;5.30;;;4.63;;
6860;SDS011;3469;47.060;15.460;2022-08-01T04:58:27;5.10;;;4.70;;
6860;SDS011;3469;47.060;15.460;2022-08-01T05:00:55;5.60;;;4.80;;
6860;SDS011;3469;47.060;15.460;2022-08-01T05:03:23;4.80;;;4.40;;
6860;SDS011;3469;47.060;15.460;2022-08-01T05:05:53;5.47;;;4.63;;
6860;SDS011;3469;47.060;15.460;2022-08-01T05:08:21;6.17;;;5.33;;
6860;SDS011;3469;47.060;15.460;2022-08-01T05:10:50;5.73;;;4.90;;
6860;SDS011;3469;47.060;15.460;2022-08-01T05:13:19;5.50;;;5.07;;
6860;SDS011;3469;47.060;15.460;2022-08-01T05:15:47;7.07;;;4.83;;
6860;SDS011;3469;47.060;15.460;2022-08-01T05:18:16;5.80;;;5.23;;
6860;SDS011;3469;47.060;15.460;2022-08-01T05:20:55;6.87;;;5.20;;
6860;SDS011;3469;47.060;15.460;2022-08-01T05:23:23;8.03;;;4.90;;
6860;SDS011;3469;47.060;15.460;2022-08-01T05:26:09;5.70;;;5.20;;
6860;SDS011;3469;47.060;15.460;2022-08-01T05:28:40;5.80;;;4.67;;
6860;SDS011;3469;47.060;15.460;2022-08-01T05:31:08;5.97;;;4.90;;
6860;SDS011;3469;47.060;15.460;2022-08-01T05:33:37;4.90;;;4.50;;
6860;SDS011;3469;47.060;15.460;2022-08-01T05:36:07;7.17;;;4.47;;
6860;SDS011;3469;47.060;15.460;2022-08-01T05:38:35;4.70;;;4.13;;
6860;SDS011;3469;47.060;15.460;2022-08-01T05:41:03;5.20;;;4.80;;
6860;SDS011;3469;47.060;15.460;2022-08-01T05:43:31;5.30;;;4.57;;
6860;SDS011;3469;47.060;15.460;2022-08-01T05:45:59;5.20;;;4.30;;
6860;SDS011;3469;47.060;15.460;2022-08-01T05:48:28;9.37;;;4.87;;
6860;SDS011;3469;47.060;15.460;2022-08-01T05:50:56;6.40;;;4.80;;
6860;SDS011;3469;47.060;15.460;2022-08-01T05:53:26;4.10;;;3.80;;
6860;SDS011;3469;47.060;15.460;2022-08-01T05:55:55;6.93;;;5.00;;
6860;SDS011;3469;47.060;15.460;2022-08-01T05:58:23;5.10;;;4.60;;
6860;SDS011;3469;47.060;15.460;2022-08-01T06:00:51;4.33;;;4.03;;
6860;SDS011;3469;47.060;15.460;2022-08-01T06:03:19;7.33;;;4.60;;
6860;SDS011;3469;47.060;15.460;2022-08-01T06:05:48;4.90;;;4.27;;
6860;SDS011;3469;47.060;15.460;2022-08-01T06:08:16;7.83;;;4.93;;
6860;SDS011;3469;47.060;15.460;2022-08-01T06:10:46;4.60;;;4.20;;
6860;SDS011;3469;47.060;15.460;2022-08-01T06:13:14;3.80;;;3.40;;
6860;SDS011;3469;47.060;15.460;2022-08-01T06:15:42;4.73;;;4.23;;
6860;SDS011;3469;47.060;15.460;2022-08-01T06:18:10;6.63;;;4.50;;
6860;SDS011;3469;47.060;15.460;2022-08-01T06:20:38;6.60;;;4.60;;
6860;SDS011;3469;47.060;15.460;2022-08-01T06:23:07;5.10;;;4.60;;
6860;SDS011;3469;47.060;15.460;2022-08-01T06:25:56;6.10;;;4.30;;
6860;SDS011;3469;47.060;15.460;2022-08-01T06:28:25;5.00;;;4.40;;
6860;SDS011;3469;47.060;15.460;2022-08-01T06:30:53;5.63;;;5.13;;
6860;SDS011;3469;47.060;15.460;2022-08-01T06:33:22;6.07;;;4.10;;
6860;SDS011;3469;47.060;15.460;2022-08-01T06:35:50;4.80;;;4.20;;
6860;SDS011;3469;47.060;15.460;2022-08-01T06:38:18;6.90;;;4.50;;
6860;SDS011;3469;47.060;15.460;2022-08-01T06:40:47;5.60;;;4.70;;
6860;SDS011;3469;47.060;15.460;2022-08-01T06:43:16;4.90;;;4.40;;
6860;SDS011;3469;47.060;15.460;2022-08-01T06:45:45;5.73;;;4.00;;
6860;SDS011;3469;47.060;15.460;2022-08-01T06:48:14;4.80;;;4.40;;
6860;SDS011;3469;47.060;15.460;2022-08-01T06:50:42;5.27;;;4.87;;
6860;SDS011;3469;47.060;15.460;2022-08-01T06:53:10;5.10;;;4.40;;
6860;SDS011;3469;47.060;15.460;2022-08-01T06:55:39;5.53;;;4.90;;
6860;SDS011;3469;47.060;15.460;2022-08-01T06:58:07;5.27;;;4.73;;
6860;SDS011;3469;47.060;15.460;2022-08-01T07:00:36;5.43;;;4.93;;
6860;SDS011;3469;47.060;15.460;2022-08-01T07:03:05;5.27;;;4.77;;
6860;SDS011;3469;47.060;15.460;2022-08-01T07:05:33;4.80;;;4.40;;
6860;SDS011;3469;47.060;15.460;2022-08-01T07:08:01;7.70;;;4.93;;
6860;SDS011;3469;47.060;15.460;2022-08-01T07:10:30;7.10;;;4.80;;
6860;SDS011;3469;47.060;15.460;2022-08-01T07:12:58;5.13;;;4.73;;
6860;SDS011;3469;47.060;15.460;2022-08-01T07:15:26;6.83;;;4.50;;
6860;SDS011;3469;47.060;15.460;2022-08-01T07:17:56;5.20;;;4.70;;
6860;SDS011;3469;47.060;15.460;2022-08-01T07:20:28;7.27;;;4.53;;
6860;SDS011;3469;47.060;15.460;2022-08-01T07:23:03;7.90;;;5.00;;
6860;SDS011;3469;47.060;15.460;2022-08-01T07:25:33;4.97;;;4.50;;
6860;SDS011;3469;47.060;15.460;2022-08-01T07:28:01;5.10;;;4.60;;
6860;SDS011;3469;47.060;15.460;2022-08-01T07:30:30;11.13;;;4.63;;
6860;SDS011;3469;47.060;15.460;2022-08-01T07:33:00;4.83;;;4.30;;
6860;SDS011;3469;47.060;15.460;2022-08-01T07:35:28;5.80;;;4.20;;
6860;SDS011;3469;47.060;15.460;2022-08-01T07:37:56;7.37;;;4.53;;
6860;SDS011;3469;47.060;15.460;2022-08-01T07:40:25;5.27;;;4.77;;
6860;SDS011;3469;47.060;15.460;2022-08-01T07:42:53;9.80;;;4.97;;
6860;SDS011;3469;47.060;15.460;2022-08-01T07:45:21;5.43;;;4.93;;
6860;SDS011;3469;47.060;15.460;2022-08-01T07:47:50;5.70;;;5.20;;
6860;SDS011;3469;47.060;15.460;2022-08-01T07:50:21;5.50;;;4.90;;
6860;SDS011;3469;47.060;15.460;2022-08-01T07:52:49;7.37;;;4.90;;
6860;SDS011;3469;47.060;15.460;2022-08-01T07:55:17;6.23;;;4.33;;
6860;SDS011;3469;47.060;15.460;2022-08-01T07:57:46;4.77;;;3.97;;
6860;SDS011;3469;47.060;15.460;2022-08-01T08:00:14;10.00;;;4.30;;
6860;SDS011;3469;47.060;15.460;2022-08-01T08:02:43;5.53;;;4.57;;
6860;SDS011;3469;47.060;15.460;2022-08-01T08:05:11;4.53;;;4.13;;
6860;SDS011;3469;47.060;15.460;2022-08-01T08:07:41;4.23;;;3.80;;
6860;SDS011;3469;47.060;15.460;2022-08-01T08:10:09;6.50;;;4.33;;
6860;SDS011;3469;47.060;15.460;2022-08-01T08:12:37;5.50;;;3.93;;
6860;SDS011;3469;47.060;15.460;2022-08-01T08:15:06;5.10;;;4.13;;
6860;SDS011;3469;47.060;15.460;2022-08-01T08:17:35;8.50;;;5.37;;
6860;SDS011;3469;47.060;15.460;2022-08-01T08:20:03;6.87;;;4.87;;
6860;SDS011;3469;47.060;15.460;2022-08-01T08:22:35;5.80;;;4.73;;
6860;SDS011;3469;47.060;15.460;2022-08-01T08:25:06;6.90;;;4.97;;
6860;SDS011;3469;47.060;15.460;2022-08-01T08:27:37;5.30;;;4.80;;
6860;SDS011;3469;47.060;15.460;2022-08-01T08:30:06;4.80;;;4.40;;
6860;SDS011;3469;47.060;15.460;2022-08-01T08:32:35;6.53;;;5.17;;
6860;SDS011;3469;47.060;15.460;2022-08-01T08:35:03;6.00;;;4.67;;
6860;SDS011;3469;47.060;15.460;2022-08-01T08:37:33;4.40;;;4.10;;
6860;SDS011;3469;47.060;15.460;2022-08-01T08:40:14;6.97;;;5.17;;
6860;SDS011;3469;47.060;15.460;2022-08-01T08:42:43;5.93;;;5.17;;
6860;SDS011;3469;47.060;15.460;2022-08-01T08:45:12;5.07;;;4.57;;
6860;SDS011;3469;47.060;15.460;2022-08-01T08:47:41;7.30;;;4.87;;
6860;SDS011;3469;47.060;15.460;2022-08-01T08:50:10;4.37;;;3.97;;
6860;SDS011;3469;47.060;15.460;2022-08-01T08:52:38;4.40;;;4.00;;
6860;SDS011;3469;47.060;15.460;2022-08-01T08:55:08;5.53;;;4.90;;
6860;SDS011;3469;47.060;15.460;2022-08-01T08:57:40;7.10;;;4.20;;
6860;SDS011;3469;47.060;15.460;2022-08-01T09:00:11;4.87;;;4.30;;
6860;SDS011;3469;47.060;15.460;2022-08-01T09:02:41;8.60;;;4.00;;
6860;SDS011;3469;47.060;15.460;2022-08-01T09:05:10;5.73;;;4.30;;
6860;SDS011;3469;47.060;15.460;2022-08-01T09:07:45;7.73;;;4.20;;
6860;SDS011;3469;47.060;15.460;2022-08-01T09:10:13;4.93;;;3.10;;
6860;SDS011;3469;47.060;15.460;2022-08-01T09:15:40;4.93;;;3.70;;
6860;SDS011;3469;47.060;15.460;2022-08-01T09:18:25;4.30;;;3.23;;
6860;SDS011;3469;47.060;15.460;2022-08-01T09:21:11;9.43;;;3.40;;
6860;SDS011;3469;47.060;15.460;2022-08-01T09:23:42;3.53;;;3.23;;
6860;SDS011;3469;47.060;15.460;2022-08-01T09:26:20;7.90;;;3.50;;
6860;SDS011;3469;47.060;15.460;2022-08-01T09:28:53;5.53;;;3.43;;
6860;SDS011;3469;47.060;15.460;2022-08-01T09:31:22;3.90;;;3.23;;
6860;SDS011;3469;47.060;15.460;2022-08-01T09:34:04;6.47;;;4.07;;
6860;SDS011;3469;47.060;15.460;2022-08-01T09:36:45;6.13;;;3.37;;
6860;SDS011;3469;47.060;15.460;2022-08-01T09:39:20;3.67;;;3.27;;
6860;SDS011;3469;47.060;15.460;2022-08-01T09:41:50;3.40;;;3.10;;
6860;SDS011;3469;47.060;15.460;2022-08-01T09:47:08;2.83;;;2.63;;
6860;SDS011;3469;47.060;15.460;2022-08-01T09:49:41;3.87;;;3.30;;
6860;SDS011;3469;47.060;15.460;2022-08-01T09:52:18;3.50;;;3.10;;
6860;SDS011;3469;47.060;15.460;2022-08-01T09:54:54;5.33;;;2.80;;
6860;SDS011;3469;47.060;15.460;2022-08-01T09:57:24;3.67;;;2.60;;
6860;SDS011;3469;47.060;15.460;2022-08-01T09:59:54;3.30;;;2.93;;
6860;SDS011;3469;47.060;15.460;2022-08-01T10:02:27;3.03;;;2.20;;
6860;SDS011;3469;47.060;15.460;2022-08-01T10:05:00;3.23;;;2.90;;
6860;SDS011;3469;47.060;15.460;2022-08-01T10:07:29;4.40;;;3.07;;
6860;SDS011;3469;47.060;15.460;2022-08-01T10:10:10;4.83;;;3.07;;
6860;SDS011;3469;47.060;15.460;2022-08-01T10:12:41;3.30;;;2.80;;
6860;SDS011;3469;47.060;15.460;2022-08-01T10:15:13;3.17;;;2.70;;
6860;SDS011;3469;47.060;15.460;2022-08-01T10:17:46;3.30;;;2.53;;
6860;SDS011;3469;47.060;15.460;2022-08-01T10:20:23;4.07;;;2.60;;
6860;SDS011;3469;47.060;15.460;2022-08-01T10:22:57;4.10;;;3.03;;
6860;SDS011;3469;47.060;15.460;2022-08-01T10:25:33;4.90;;;3.07;;
6860;SDS011;3469;47.060;15.460;2022-08-01T10:28:13;2.40;;;2.30;;
6860;SDS011;3469;47.060;15.460;2022-08-01T10:30:50;3.20;;;2.70;;
6860;SDS011;3469;47.060;15.460;2022-08-01T10:33:21;5.57;;;3.07;;
6860;SDS011;3469;47.060;15.460;2022-08-01T10:36:09;3.77;;;3.47;;
6860;SDS011;3469;47.060;15.460;2022-08-01T10:38:38;5.03;;;2.70;;
6860;SDS011;3469;47.060;15.460;2022-08-01T10:41:07;5.27;;;3.10;;
6860;SDS011;3469;47.060;15.460;2022-08-01T10:43:36;3.73;;;3.10;;
6860;SDS011;3469;47.060;15.460;2022-08-01T10:46:08;5.13;;;2.73;;
6860;SDS011;3469;47.060;15.460;2022-08-01T10:48:39;4.90;;;2.63;;
6860;SDS011;3469;47.060;15.460;2022-08-01T10:51:11;4.40;;;3.43;;
6860;SDS011;3469;47.060;15.460;2022-08-01T10:53:47;3.33;;;2.87;;
6860;SDS011;3469;47.060;15.460;2022-08-01T10:56:21;3.43;;;2.90;;
6860;SDS011;3469;47.060;15.460;2022-08-01T10:59:00;5.80;;;2.90;;
6860;SDS011;3469;47.060;15.460;2022-08-01T11:01:35;2.70;;;2.50;;
6860;SDS011;3469;47.060;15.460;2022-08-01T11:04:05;3.70;;;3.00;;
6860;SDS011;3469;47.060;15.460;2022-08-01T11:06:43;6.00;;;2.87;;
6860;SDS011;3469;47.060;15.460;2022-08-01T11:09:26;5.30;;;2.80;;
6860;SDS011;3469;47.060;15.460;2022-08-01T11:12:04;14.03;;;2.20;;
6860;SDS011;3469;47.060;15.460;2022-08-01T11:17:58;2.57;;;2.37;;
6860;SDS011;3469;47.060;15.460;2022-08-01T11:20:28;2.97;;;2.50;;
6860;SDS011;3469;47.060;15.460;2022-08-01T11:23:17;3.70;;;2.53;;
6860;SDS011;3469;47.060;15.460;2022-08-01T11:26:07;3.53;;;2.60;;
6860;SDS011;3469;47.060;15.460;2022-08-01T11:28:38;4.10;;;1.97;;
6860;SDS011;3469;47.060;15.460;2022-08-01T11:31:28;2.93;;;1.80;;
6860;SDS011;3469;47.060;15.460;2022-08-01T11:34:05;2.53;;;1.93;;
6860;SDS011;3469;47.060;15.460;2022-08-01T11:36:33;8.20;;;2.10;;
6860;SDS011;3469;47.060;15.460;2022-08-01T11:39:22;2.73;;;2.00;;
6860;SDS011;3469;47.060;15.460;2022-08-01T11:41:51;1.83;;;1.70;;
6860;SDS011;3469;47.060;15.460;2022-08-01T11:44:22;3.30;;;1.63;;
6860;SDS011;3469;47.060;15.460;2022-08-01T11:46:57;2.33;;;1.80;;
6860;SDS011;3469;47.060;15.460;2022-08-01T11:49:29;2.37;;;1.50;;
6860;SDS011;3469;47.060;15.460;2022-08-01T11:52:25;5.20;;;2.20;;
6860;SDS011;3469;47.060;15.460;2022-08-01T11:54:55;3.50;;;1.83;;
6860;SDS011;3469;47.060;15.460;2022-08-01T11:57:25;2.50;;;1.83;;
6860;SDS011;3469;47.060;15.460;2022-08-01T12:00:02;1.80;;;1.70;;
6860;SDS011;3469;47.060;15.460;2022-08-01T12:02:40;4.33;;;1.83;;
6860;SDS011;3469;47.060;15.460;2022-08-01T12:05:13;2.17;;;1.77;;
6860;SDS011;3469;47.060;15.460;2022-08-01T12:07:43;1.63;;;1.53;;
6860;SDS011;3469;47.060;15.460;2022-08-01T12:10:13;1.53;;;1.43;;
6860;SDS011;3469;47.060;15.460;2022-08-01T12:12:43;3.47;;;1.80;;
6860;SDS011;3469;47.060;15.460;2022-08-01T12:15:14;1.63;;;1.30;;
6860;SDS011;3469;47.060;15.460;2022-08-01T12:17:43;1.80;;;1.53;;
6860;SDS011;3469;47.060;15.460;2022-08-01T12:20:28;1.33;;;1.07;;
6860;SDS011;3469;47.060;15.460;2022-08-01T12:22:58;1.20;;;1.10;;
6860;SDS011;3469;47.060;15.460;2022-08-01T12:25:27;2.60;;;1.50;;
6860;SDS011;3469;47.060;15.460;2022-08-01T12:27:59;1.87;;;1.40;;
6860;SDS011;3469;47.060;15.460;2022-08-01T12:30:28;1.70;;;1.30;;
6860;SDS011;3469;47.060;15.460;2022-08-01T12:32:57;3.00;;;1.70;;
6860;SDS011;3469;47.060;15.460;2022-08-01T12:35:26;2.33;;;1.23;;
6860;SDS011;3469;47.060;15.460;2022-08-01T12:37:57;3.37;;;1.50;;
6860;SDS011;3469;47.060;15.460;2022-08-01T12:40:28;1.73;;;1.47;;
6860;SDS011;3469;47.060;15.460;2022-08-01T12:42:57;1.93;;;1.27;;
6860;SDS011;3469;47.060;15.460;2022-08-01T12:45:27;2.17;;;1.33;;
6860;SDS011;3469;47.060;15.460;2022-08-01T12:47:56;1.60;;;1.47;;
6860;SDS011;3469;47.060;15.460;2022-08-01T12:50:28;2.00;;;1.70;;
6860;SDS011;3469;47.060;15.460;2022-08-01T12:52:57;1.50;;;1.30;;
6860;SDS011;3469;47.060;15.460;2022-08-01T12:55:26;1.73;;;1.37;;
6860;SDS011;3469;47.060;15.460;2022-08-01T12:58:04;1.40;;;1.30;;
6860;SDS011;3469;47.060;15.460;2022-08-01T13:00:41;2.80;;;1.50;;
6860;SDS011;3469;47.060;15.460;2022-08-01T13:03:11;2.13;;;1.40;;
6860;SDS011;3469;47.060;15.460;2022-08-01T13:05:43;1.80;;;1.27;;
6860;SDS011;3469;47.060;15.460;2022-08-01T13:08:13;1.60;;;1.40;;
6860;SDS011;3469;47.060;15.460;2022-08-01T13:10:43;3.30;;;1.50;;
6860;SDS011;3469;47.060;15.460;2022-08-01T13:13:11;3.00;;;1.23;;
6860;SDS011;3469;47.060;15.460;2022-08-01T13:16:02;3.43;;;1.00;;
6860;SDS011;3469;47.060;15.460;2022-08-01T13:18:32;2.17;;;1.40;;
6860;SDS011;3469;47.060;15.460;2022-08-01T13:21:09;1.83;;;1.10;;
6860;SDS011;3469;47.060;15.460;2022-08-01T13:23:39;1.40;;;1.00;;
6860;SDS011;3469;47.060;15.460;2022-08-01T13:26:37;1.87;;;1.50;;
6860;SDS011;3469;47.060;15.460;2022-08-01T13:29:09;3.43;;;1.50;;
6860;SDS011;3469;47.060;15.460;2022-08-01T13:31:38;1.83;;;1.33;;
6860;SDS011;3469;47.060;15.460;2022-08-01T13:34:07;3.00;;;1.50;;
6860;SDS011;3469;47.060;15.460;2022-08-01T13:36:40;1.50;;;1.40;;
6860;SDS011;3469;47.060;15.460;2022-08-01T13:39:15;1.17;;;0.90;;
6860;SDS011;3469;47.060;15.460;2022-08-01T13:42:00;2.67;;;1.50;;
6860;SDS011;3469;47.060;15.460;2022-08-01T13:44:29;2.57;;;1.47;;
6860;SDS011;3469;47.060;15.460;2022-08-01T13:46:58;2.80;;;1.33;;
6860;SDS011;3469;47.060;15.460;2022-08-01T13:49:26;2.13;;;1.53;;
6860;SDS011;3469;47.060;15.460;2022-08-01T13:52:04;2.40;;;1.10;;
6860;SDS011;3469;47.060;15.460;2022-08-01T13:54:34;1.30;;;1.03;;
6860;SDS011;3469;47.060;15.460;2022-08-01T13:57:02;1.73;;;1.37;;
6860;SDS011;3469;47.060;15.460;2022-08-01T13:59:31;3.33;;;1.23;;
6860;SDS011;3469;47.060;15.460;2022-08-01T14:02:00;2.67;;;1.20;;
6860;SDS011;3469;47.060;15.460;2022-08-01T14:04:28;3.40;;;1.30;;
6860;SDS011;3469;47.060;15.460;2022-08-01T14:06:56;1.40;;;1.20;;
6860;SDS011;3469;47.060;15.460;2022-08-01T14:09:30;2.50;;;1.37;;
6860;SDS011;3469;47.060;15.460;2022-08-01T14:12:00;1.40;;;1.07;;
6860;SDS011;3469;47.060;15.460;2022-08-01T14:14:28;3.53;;;1.20;;
6860;SDS011;3469;47.060;15.460;2022-08-01T14:16:57;1.20;;;0.87;;
6860;SDS011;3469;47.060;15.460;2022-08-01T14:19:25;1.47;;;1.30;;
6860;SDS011;3469;47.060;15.460;2022-08-01T14:22:05;1.30;;;0.80;;
6860;SDS011;3469;47.060;15.460;2022-08-01T14:24:35;1.90;;;1.23;;
6860;SDS011;3469;47.060;15.460;2022-08-01T14:27:06;2.27;;;1.20;;
6860;SDS011;3469;47.060;15.460;2022-08-01T14:29:34;2.00;;;1.57;;
6860;SDS011;3469;47.060;15.460;2022-08-01T14:32:22;1.70;;;1.30;;
6860;SDS011;3469;47.060;15.460;2022-08-01T14:34:54;1.93;;;1.30;;
6860;SDS011;3469;47.060;15.460;2022-08-01T14:37:23;1.87;;;0.90;;
6860;SDS011;3469;47.060;15.460;2022-08-01T14:39:58;1.13;;;0.90;;
6860;SDS011;3469;47.060;15.460;2022-08-01T14:42:27;1.67;;;1.10;;
6860;SDS011;3469;47.060;15.460;2022-08-01T14:44:55;4.50;;;1.50;;
6860;SDS011;3469;47.060;15.460;2022-08-01T14:47:23;3.93;;;2.00;;
6860;SDS011;3469;47.060;15.460;2022-08-01T14:49:51;4.33;;;1.23;;
6860;SDS011;3469;47.060;15.460;2022-08-01T14:52:20;1.70;;;1.27;;
6860;SDS011;3469;47.060;15.460;2022-08-01T14:54:48;1.70;;;1.23;;
6860;SDS011;3469;47.060;15.460;2022-08-01T14:57:18;3.00;;;1.20;;
6860;SDS011;3469;47.060;15.460;2022-08-01T14:59:46;1.90;;;1.30;;
6860;SDS011;3469;47.060;15.460;2022-08-01T15:02:15;2.27;;;1.77;;
6860;SDS011;3469;47.060;15.460;2022-08-01T15:04:43;3.23;;;1.77;;
6860;SDS011;3469;47.060;15.460;2022-08-01T15:07:12;3.23;;;1.30;;
6860;SDS011;3469;47.060;15.460;2022-08-01T15:09:40;2.40;;;1.47;;
6860;SDS011;3469;47.060;15.460;2022-08-01T15:12:09;1.47;;;1.10;;
6860;SDS011;3469;47.060;15.460;2022-08-01T15:14:39;1.53;;;1.20;;
6860;SDS011;3469;47.060;15.460;2022-08-01T15:17:18;2.67;;;1.90;;
6860;SDS011;3469;47.060;15.460;2022-08-01T15:19:48;3.10;;;1.80;;
6860;SDS011;3469;47.060;15.460;2022-08-01T15:22:19;3.40;;;1.93;;
6860;SDS011;3469;47.060;15.460;2022-08-01T15:24:48;5.00;;;1.93;;
6860;SDS011;3469;47.060;15.460;2022-08-01T15:27:23;3.67;;;1.77;;
6860;SDS011;3469;47.060;15.460;2022-08-01T15:29:53;1.90;;;1.80;;
6860;SDS011;3469;47.060;15.460;2022-08-01T15:32:22;2.20;;;1.87;;
6860;SDS011;3469;47.060;15.460;2022-08-01T15:34:50;2.47;;;2.27;;